Time;durP1;ratioP1;P1;durP2;ratioP2;P2;SDS_P1;SDS_P2;PMS_P1;PMS_P2;Temp;Humidity;BMP_temperature;BMP_pressure;BME280_temperature;BME280_humidity;BME280_pressure;Samples;Min_cycle;Max_cycle;Signal;HPM_P1;HPM_P2
2023/02/20 00:01:53;;;;;;;4.47;2.28;;;;;;;9.31;67.99;97702.03;5118448;28;20039;-81
2023/02/20 00:04:22;;;;;;;4.38;2.47;;;;;;;9.32;67.91;97702.88;5118507;28;20051;-81
2023/02/20 00:06:53;;;;;;;4.22;2.78;;;;;;;9.31;67.31;97704.66;5118237;28;20047;-81
2023/02/20 00:09:22;;;;;;;5.30;2.40;;;;;;;9.31;67.33;97712.47;5117866;28;20092;-81
2023/02/20 00:11:50;;;;;;;6.25;2.38;;;;;;;9.28;67.05;97712.75;5118258;28;20024;-81
2023/02/20 00:14:21;;;;;;;8.23;3.88;;;;;;;9.28;66.89;97717.97;5118393;28;20038;-81
2023/02/20 00:16:49;;;;;;;5.90;2.45;;;;;;;9.25;67.66;97713.06;5117942;28;20032;-81
2023/02/20 00:19:17;;;;;;;5.30;2.47;;;;;;;9.24;67.54;97708.81;5117901;28;20040;-81
2023/02/20 00:21:47;;;;;;;6.22;2.47;;;;;;;9.26;67.54;97710.28;5118205;28;20040;-81
2023/02/20 00:24:18;;;;;;;4.43;2.72;;;;;;;9.31;67.09;97709.03;5118327;28;20043;-81
2023/02/20 00:26:47;;;;;;;4.30;2.50;;;;;;;9.32;67.11;97708.91;5118197;28;20056;-81
2023/02/20 00:29:17;;;;;;;5.55;3.05;;;;;;;9.30;66.66;97705.63;5117676;28;20057;-81
2023/02/20 00:31:51;;;;;;;5.35;2.50;;;;;;;9.27;67.00;97705.91;5118056;28;20052;-81
2023/02/20 00:34:19;;;;;;;4.38;2.58;;;;;;;9.29;67.08;97703.97;5118215;28;20063;-82
2023/02/20 00:36:57;;;;;;;4.70;3.88;;;;;;;9.26;66.64;97714.69;5117927;28;20060;-81
2023/02/20 00:39:25;;;;;;;6.65;2.55;;;;;;;9.18;66.85;97712.84;5117806;28;20070;-82
2023/02/20 00:42:01;;;;;;;4.35;2.42;;;;;;;9.15;67.13;97715.69;5118136;28;20036;-81
2023/02/20 00:44:32;;;;;;;3.60;2.72;;;;;;;9.15;67.34;97712.28;5117986;28;20032;-81
2023/02/20 00:47:00;;;;;;;5.90;2.35;;;;;;;9.15;67.50;97712.28;5117949;28;20036;-81
2023/02/20 00:49:28;;;;;;;4.43;3.13;;;;;;;9.17;67.52;97715.56;5117520;28;20038;-81
2023/02/20 00:51:58;;;;;;;5.75;2.60;;;;;;;9.19;67.51;97730.06;5117932;28;20082;-82
2023/02/20 00:54:26;;;;;;;3.53;2.58;;;;;;;9.17;67.43;97731.19;5117964;28;20043;-81
2023/02/20 00:56:54;;;;;;;4.32;2.75;;;;;;;9.14;67.63;97736.66;5117596;28;20096;-81
2023/02/20 00:59:25;;;;;;;3.15;2.65;;;;;;;9.16;67.87;97734.75;5117442;28;20052;-81
2023/02/20 01:01:58;;;;;;;6.18;3.35;;;;;;;9.15;67.55;97733.13;5117882;28;20043;-80
2023/02/20 01:04:27;;;;;;;2.92;2.50;;;;;;;9.15;67.65;97717.50;5117845;28;20036;-81
2023/02/20 01:06:55;;;;;;;5.10;2.88;;;;;;;9.17;67.76;97720.78;5117764;28;20052;-81
2023/02/20 01:09:27;;;;;;;5.60;3.28;;;;;;;9.16;67.37;97706.09;5117214;28;20061;-81
2023/02/20 01:11:55;;;;;;;6.53;3.38;;;;;;;9.15;67.66;97712.28;5117771;28;20051;-81
2023/02/20 01:14:26;;;;;;;5.28;2.95;;;;;;;9.15;67.45;97712.28;5117976;28;20056;-81
2023/02/20 01:16:55;;;;;;;6.43;3.47;;;;;;;9.13;67.36;97714.22;5117617;28;20036;-81
2023/02/20 01:19:24;;;;;;;5.13;2.80;;;;;;;9.13;67.50;97716.81;5117228;28;20036;-81
2023/02/20 01:21:59;;;;;;;8.65;3.05;;;;;;;9.12;67.33;97707.34;5117678;28;20050;-81
2023/02/20 01:24:47;;;;;;;4.28;2.75;;;;;;;9.14;67.49;97710.63;5117439;28;20104;-82
2023/02/20 01:27:22;;;;;;;5.10;2.85;;;;;;;9.12;67.42;97720.38;5117450;28;20100;-82
2023/02/20 01:29:57;;;;;;;6.70;3.17;;;;;;;9.11;67.48;97710.94;5120146;28;20036;-81
2023/02/20 01:32:26;;;;;;;5.55;2.88;;;;;;;9.08;67.40;97712.88;5121163;28;20055;-81
2023/02/20 01:34:54;;;;;;;8.57;3.00;;;;;;;9.06;67.46;97709.59;5121263;28;20032;-81
2023/02/20 01:37:27;;;;;;;3.90;2.80;;;;;;;9.03;67.78;97706.44;5120618;28;20039;-80
2023/02/20 01:40:16;;;;;;;2.72;2.40;;;;;;;9.00;67.63;97704.13;5120655;27;20048;-81
2023/02/20 01:42:49;;;;;;;5.35;3.10;;;;;;;8.97;67.65;97710.47;5120940;28;20095;-82
2023/02/20 01:45:38;;;;;;;5.70;3.50;;;;;;;8.94;67.92;97715.13;5120840;28;20035;-81
2023/02/20 01:48:24;;;;;;;6.90;3.03;;;;;;;8.92;67.98;97710.06;5120354;28;20052;-81
2023/02/20 01:51:11;;;;;;;8.73;2.95;;;;;;;8.87;68.10;97704.47;5120666;28;20040;-82
2023/02/20 01:53:52;;;;;;;4.47;3.28;;;;;;;8.91;67.80;97705.81;5120561;28;20063;-80
2023/02/20 01:56:36;;;;;;;5.85;3.13;;;;;;;8.92;67.98;97704.88;5120387;28;20028;-81
2023/02/20 01:59:16;;;;;;;5.03;3.30;;;;;;;8.90;67.77;97701.59;5120267;28;20032;-82
2023/02/20 02:01:56;;;;;;;7.95;3.58;;;;;;;8.87;67.85;97705.28;5120546;28;20112;-82
2023/02/20 02:04:39;;;;;;;6.25;3.38;;;;;;;8.85;68.24;97685.56;5120286;28;20032;-82
2023/02/20 02:10:10;;;;;;;7.00;2.83;;;;;;;8.92;67.95;97673.66;5214581;22;20037;-79
2023/02/20 02:12:48;;;;;;;4.78;3.17;;;;;;;8.94;67.86;97670.88;5080219;28;20036;-79
2023/02/20 02:15:19;;;;;;;4.05;3.13;;;;;;;8.89;67.63;97666.13;5080191;28;20063;-79
2023/02/20 02:18:13;;;;;;;4.47;3.10;;;;;;;8.90;67.92;97669.53;5079882;28;20055;-79
2023/02/20 02:23:46;;;;;;;5.82;3.55;;;;;;;8.84;67.73;97669.16;5271709;22;20031;-82
2023/02/20 02:55:44;;;;;;;2.72;2.38;;;;;;;8.75;68.01;97679.63;5078634;28;20283;-81
2023/02/20 02:58:17;;;;;;;6.03;2.80;;;;;;;8.77;67.82;97675.09;5080634;28;20093;-82
2023/02/20 03:01:06;;;;;;;6.38;3.10;;;;;;;8.78;67.50;97674.94;5080502;28;20044;-81
2023/02/20 03:03:41;;;;;;;4.70;3.08;;;;;;;8.78;67.39;97668.91;5080562;28;20052;-81
2023/02/20 03:06:12;;;;;;;5.40;2.67;;;;;;;8.75;67.86;97679.63;5086879;22;20041;-78
2023/02/20 03:08:44;;;;;;;7.22;2.55;;;;;;;8.73;68.16;97674.53;5072327;28;20106;-76
2023/02/20 03:11:16;;;;;;;4.68;3.05;;;;;;;8.73;67.54;97674.53;5073158;28;20053;-76
2023/02/20 03:16:41;;;;;;;4.75;2.92;;;;;;;8.70;68.26;97674.00;5073336;28;20084;-76
2023/02/20 03:19:12;;;;;;;8.52;3.70;;;;;;;8.66;67.79;97676.09;5072384;28;20051;-76
2023/02/20 03:21:44;;;;;;;6.55;2.72;;;;;;;8.61;67.63;97678.28;5072975;28;20516;-76
2023/02/20 03:24:14;;;;;;;7.85;2.60;;;;;;;8.58;67.86;97678.56;5073007;28;20053;-77
2023/02/20 03:26:45;;;;;;;6.97;3.13;;;;;;;8.53;68.01;97667.78;5073317;28;20084;-77
2023/02/20 03:29:17;;;;;;;8.48;3.28;;;;;;;8.49;68.09;97674.22;5072787;28;20063;-77
2023/02/20 03:43:23;;;;;;;6.25;3.15;;;;;;;8.45;68.40;97658.09;5072581;28;20490;-76
2023/02/20 03:45:52;;;;;;;7.25;3.13;;;;;;;8.42;68.24;97668.78;5072671;28;20086;-77
2023/02/20 03:48:25;;;;;;;5.18;2.88;;;;;;;8.40;68.76;97668.06;5071930;28;20500;-76
2023/02/20 03:50:53;;;;;;;3.63;2.40;;;;;;;8.39;68.72;97669.03;5071810;28;20139;-77
2023/02/20 03:53:21;;;;;;;6.97;3.40;;;;;;;8.34;68.03;97663.44;5072117;28;20055;-76
2023/02/20 03:55:52;;;;;;;4.50;2.95;;;;;;;8.33;68.46;97670.41;5072473;28;20044;-77
2023/02/20 03:58:24;;;;;;;5.75;3.08;;;;;;;8.35;68.30;97667.66;5071745;28;20044;-78
2023/02/20 04:00:56;;;;;;;6.50;2.50;;;;;;;8.37;68.20;97657.94;5072449;28;20048;-79
2023/02/20 04:03:28;;;;;;;5.95;2.65;;;;;;;8.33;67.77;97664.38;5072034;28;20399;-79
2023/02/20 04:05:57;;;;;;;4.93;2.77;;;;;;;8.31;68.32;97658.50;5072195;28;20055;-78
2023/02/20 04:08:34;;;;;;;4.70;2.35;;;;;;;8.31;68.36;97661.09;5071669;28;20062;-79
2023/02/20 04:11:05;;;;;;;7.28;2.65;;;;;;;8.30;68.34;97664.66;5072447;28;20182;-78
2023/02/20 04:13:34;;;;;;;4.82;2.78;;;;;;;8.33;68.76;97670.41;5071979;28;20059;-78
2023/02/20 04:16:03;;;;;;;6.72;3.15;;;;;;;8.36;68.31;97666.72;5072224;28;20447;-78
2023/02/20 04:18:31;;;;;;;6.57;2.45;;;;;;;8.39;68.35;97666.41;5076459;28;20052;-77
2023/02/20 04:21:02;;;;;;;5.13;2.95;;;;;;;8.40;67.83;97662.88;5087010;28;20045;-77
2023/02/20 04:23:36;;;;;;;7.25;2.80;;;;;;;8.37;67.73;97655.34;5079933;28;20091;-77
2023/02/20 04:26:07;;;;;;;6.25;3.03;;;;;;;8.36;68.17;97658.91;5073159;28;20059;-77
2023/02/20 04:28:37;;;;;;;3.65;2.90;;;;;;;8.35;68.47;97665.06;5071917;28;20080;-77
2023/02/20 04:31:04;;;;;;;5.82;2.97;;;;;;;8.35;68.47;97662.47;5072594;28;20048;-77
2023/02/20 04:33:32;;;;;;;5.65;2.72;;;;;;;8.38;69.02;97657.00;5072037;28;20132;-77
2023/02/20 04:36:01;;;;;;;3.30;2.92;;;;;;;8.43;68.57;97657.41;5072507;28;20049;-76
2023/02/20 04:38:28;;;;;;;3.83;3.17;;;;;;;8.42;68.21;97658.38;5071709;28;20049;-77
2023/02/20 04:40:56;;;;;;;5.82;2.67;;;;;;;8.42;68.29;97647.97;5072481;28;20056;-76
2023/02/20 04:43:23;;;;;;;6.47;3.33;;;;;;;8.42;68.00;97645.38;5072812;28;20071;-77
2023/02/20 04:45:52;;;;;;;7.57;2.85;;;;;;;8.39;67.93;97654.22;5072413;28;20055;-76
2023/02/20 04:48:19;;;;;;;9.90;3.10;;;;;;;8.39;68.31;97650.81;5071365;28;20075;-77
2023/02/20 04:50:47;;;;;;;3.22;2.05;;;;;;;8.40;68.40;97655.06;5071817;28;20155;-79
2023/02/20 04:53:15;;;;;;;6.53;2.58;;;;;;;8.41;68.37;97656.72;5072006;28;20048;-78
2023/02/20 04:55:42;;;;;;;3.85;2.25;;;;;;;8.45;68.60;97658.09;5071697;28;20048;-78
2023/02/20 04:58:10;;;;;;;6.68;2.80;;;;;;;8.45;68.38;97652.88;5071566;28;20072;-79
2023/02/20 05:00:37;;;;;;;5.45;2.65;;;;;;;8.41;68.39;97652.34;5071756;28;20059;-78
2023/02/20 05:03:06;;;;;;;5.25;2.83;;;;;;;8.40;67.82;97655.06;5073868;28;20050;-79
2023/02/20 05:05:34;;;;;;;5.45;2.42;;;;;;;8.37;67.52;97650.13;5075468;28;20060;-77
2023/02/20 05:08:04;;;;;;;5.30;2.95;;;;;;;8.36;67.59;97658.91;5074891;28;20052;-76
2023/02/20 05:10:33;;;;;;;6.63;2.90;;;;;;;8.33;67.58;97656.56;5075741;28;20444;-77
2023/02/20 05:13:01;;;;;;;4.88;2.55;;;;;;;8.33;67.79;97659.19;5074980;28;20044;-75
2023/02/20 05:15:30;;;;;;;6.00;2.85;;;;;;;8.32;67.78;97667.94;5075037;28;20055;-76
2023/02/20 05:17:58;;;;;;;5.35;2.55;;;;;;;8.33;68.08;97664.38;5074627;28;20056;-76
2023/02/20 05:23:09;;;;;;;6.80;2.42;;;;;;;8.27;67.48;97670.16;5073755;28;20068;-75
2023/02/20 05:25:37;;;;;;;8.20;2.75;;;;;;;8.21;67.55;97667.16;5074710;28;20054;-75
2023/02/20 05:28:04;;;;;;;5.75;2.85;;;;;;;8.15;67.53;97662.50;5074453;28;20048;-75
2023/02/20 05:30:32;;;;;;;7.30;2.75;;;;;;;8.13;68.08;97666.22;5074933;28;20049;-75
2023/02/20 05:32:59;;;;;;;7.45;3.42;;;;;;;8.12;67.86;97664.59;5074585;28;20533;-78
2023/02/20 05:35:28;;;;;;;8.38;2.80;;;;;;;8.10;67.52;97659.50;5075081;28;20051;-77
2023/02/20 05:37:56;;;;;;;11.15;3.05;;;;;;;8.09;67.91;97660.50;5074040;28;20040;-78
2023/02/20 05:40:23;;;;;;;4.50;2.63;;;;;;;8.08;67.51;97665.81;5076793;28;20054;-79
2023/02/20 05:42:51;;;;;;;4.80;2.63;;;;;;;8.04;67.71;97660.06;5076553;28;20036;-76
2023/02/20 05:45:18;;;;;;;6.97;3.05;;;;;;;8.03;67.97;97664.44;5074112;28;20052;-76
2023/02/20 05:47:46;;;;;;;6.50;3.22;;;;;;;8.04;67.36;97657.47;5073826;28;20437;-79
2023/02/20 05:50:13;;;;;;;5.47;2.60;;;;;;;8.05;68.10;97651.34;5074674;28;20054;-78
2023/02/20 05:52:43;;;;;;;10.55;3.03;;;;;;;8.04;68.21;97654.88;5074741;28;20055;-79
2023/02/20 05:55:11;;;;;;;5.13;2.53;;;;;;;8.04;68.26;97645.28;5074709;28;20053;-78
2023/02/20 05:57:38;;;;;;;3.97;2.30;;;;;;;8.07;68.18;97653.75;5074613;28;20052;-78
2023/02/20 06:00:07;;;;;;;4.55;2.60;;;;;;;8.08;67.66;97666.63;5072720;28;20131;-77
2023/02/20 06:02:34;;;;;;;15.65;8.75;;;;;;;8.03;67.75;97666.25;5073912;28;20052;-79
2023/02/20 06:05:04;;;;;;;10.15;5.93;;;;;;;8.02;68.04;97669.78;5074526;28;20044;-78
2023/02/20 06:07:31;;;;;;;7.43;3.25;;;;;;;8.01;67.75;97666.38;5074440;28;20549;-78
2023/02/20 06:10:00;;;;;;;3.70;2.55;;;;;;;7.99;67.59;97678.69;5072861;28;20056;-79
2023/02/20 06:12:28;;;;;;;8.82;3.05;;;;;;;7.96;67.35;97675.53;5074226;28;20059;-80
2023/02/20 06:14:56;;;;;;;6.60;3.15;;;;;;;7.95;67.89;97677.31;5073154;28;20041;-80
2023/02/20 06:17:23;;;;;;;4.43;2.72;;;;;;;7.96;68.27;97684.16;5073921;28;20048;-80
2023/02/20 06:19:52;;;;;;;8.40;3.67;;;;;;;7.97;67.82;97684.97;5074710;28;20060;-81
2023/02/20 06:22:20;;;;;;;6.28;2.80;;;;;;;7.96;67.91;97683.31;5076063;28;20143;-81
2023/02/20 06:24:48;;;;;;;6.47;3.00;;;;;;;7.97;67.78;97690.16;5073044;28;20044;-81
2023/02/20 06:27:17;;;;;;;4.10;2.33;;;;;;;7.97;68.08;97695.38;5072369;28;20048;-81
2023/02/20 06:29:47;;;;;;;8.35;3.10;;;;;;;7.95;67.25;97697.28;5072391;28;20124;-79
2023/02/20 06:32:15;;;;;;;6.90;2.97;;;;;;;7.94;67.48;97691.28;5073173;28;20066;-79
2023/02/20 06:34:44;;;;;;;4.90;3.13;;;;;;;7.97;67.35;97700.56;5074827;28;20076;-79
2023/02/20 06:37:11;;;;;;;6.80;3.05;;;;;;;7.96;67.42;97693.72;5073525;28;20044;-79
2023/02/20 06:39:41;;;;;;;5.43;3.33;;;;;;;7.94;67.19;97695.66;5073978;28;20505;-79
2023/02/20 06:42:09;;;;;;;8.10;2.97;;;;;;;7.95;67.72;97690.31;5074577;28;20142;-80
2023/02/20 06:44:38;;;;;;;5.05;2.55;;;;;;;7.97;66.96;97697.97;5075163;28;20056;-79
2023/02/20 06:47:07;;;;;;;7.60;2.92;;;;;;;7.97;67.67;97701.38;5078560;28;20082;-82
2023/02/20 06:49:36;;;;;;;4.45;3.30;;;;;;;7.97;67.10;97700.56;5097313;28;20037;-82
2023/02/20 06:52:04;;;;;;;5.38;3.00;;;;;;;7.96;66.78;97688.53;5096487;28;20108;-79
2023/02/20 06:54:32;;;;;;;4.85;3.40;;;;;;;7.93;67.38;97691.41;5096055;28;20100;-80
2023/02/20 06:57:00;;;;;;;6.82;2.63;;;;;;;7.99;67.48;97696.06;5093285;28;20112;-79
2023/02/20 06:59:28;;;;;;;7.30;3.13;;;;;;;8.06;67.59;97699.72;5073851;28;20048;-79
2023/02/20 07:01:57;;;;;;;5.15;3.38;;;;;;;8.11;67.33;97701.91;5081135;28;20058;-79
2023/02/20 07:04:26;;;;;;;6.60;3.97;;;;;;;8.15;66.84;97709.28;5089732;28;20070;-79
2023/02/20 07:06:55;;;;;;;5.82;3.20;;;;;;;8.23;67.34;97709.41;5081728;28;20045;-79
2023/02/20 07:09:24;;;;;;;6.13;3.33;;;;;;;8.35;67.51;97719.66;5074531;28;20101;-79
2023/02/20 07:11:53;;;;;;;7.65;3.63;;;;;;;8.50;66.07;97726.09;5073754;28;20049;-79
2023/02/20 07:14:21;;;;;;;8.50;3.95;;;;;;;8.58;65.62;97721.00;5073872;28;20124;-79
2023/02/20 07:16:49;;;;;;;7.15;3.97;;;;;;;8.64;65.24;97727.44;5073479;28;20165;-79
2023/02/20 07:19:18;;;;;;;5.90;3.30;;;;;;;8.74;65.81;97727.38;5073279;28;20055;-79
2023/02/20 07:21:46;;;;;;;5.05;3.30;;;;;;;8.91;65.97;97731.03;5073893;28;20127;-79
2023/02/20 07:24:14;;;;;;;7.38;3.90;;;;;;;9.03;65.24;97733.31;5073741;28;20571;-79
2023/02/20 07:26:41;;;;;;;9.13;3.90;;;;;;;9.16;64.18;97729.53;5072565;28;20131;-79
2023/02/20 07:29:09;;;;;;;7.72;3.42;;;;;;;9.37;63.13;97724.91;5072627;28;20139;-79
2023/02/20 07:31:37;;;;;;;6.90;3.88;;;;;;;9.63;63.70;97726.78;5073737;28;20048;-79
2023/02/20 07:34:05;;;;;;;9.18;3.67;;;;;;;10.44;61.22;97726.66;5073108;28;20049;-79
2023/02/20 07:36:35;;;;;;;6.97;3.20;;;;;;;11.25;58.11;97729.84;5073417;28;20088;-79
2023/02/20 07:39:05;;;;;;;6.00;2.78;;;;;;;11.50;57.33;97731.56;5072808;28;20131;-79
2023/02/20 07:41:34;;;;;;;6.07;2.83;;;;;;;12.24;56.26;97731.66;5072835;28;20076;-79
2023/02/20 07:44:02;;;;;;;6.28;3.50;;;;;;;12.58;53.87;97733.28;5072664;28;20048;-79
2023/02/20 07:46:32;;;;;;;4.68;2.95;;;;;;;12.35;54.96;97733.97;5072974;28;20144;-79
2023/02/20 07:49:00;;;;;;;9.15;3.38;;;;;;;12.18;54.47;97715.81;5071960;28;20514;-79
2023/02/20 07:51:28;;;;;;;5.75;2.70;;;;;;;12.03;55.33;97711.25;5074410;28;20120;-79
2023/02/20 07:53:57;;;;;;;8.90;3.40;;;;;;;11.91;55.42;97695.03;5073040;28;20055;-79
2023/02/20 07:56:25;;;;;;;4.88;2.72;;;;;;;11.79;55.72;97696.34;5073297;28;20062;-79
2023/02/20 07:58:52;;;;;;;6.40;3.28;;;;;;;11.67;56.57;97692.38;5072439;28;20144;-79
2023/02/20 08:01:20;;;;;;;3.78;2.50;;;;;;;11.61;56.64;97701.72;5073100;28;20047;-79
2023/02/20 08:03:48;;;;;;;4.97;2.88;;;;;;;11.70;56.47;97699.94;5072940;28;20053;-79
2023/02/20 08:06:17;;;;;;;4.68;2.83;;;;;;;12.20;54.59;97698.97;5072020;28;20453;-79
2023/02/20 08:08:47;;;;;;;8.75;3.72;;;;;;;12.62;52.78;97716.25;5071635;28;20084;-79
2023/02/20 08:11:17;;;;;;;8.73;2.97;;;;;;;12.93;52.75;97711.09;5072230;28;20072;-78
2023/02/20 08:13:45;;;;;;;4.35;2.33;;;;;;;14.14;50.23;97703.69;5072422;28;20060;-79
2023/02/20 08:16:12;;;;;;;2.80;2.55;;;;;;;14.62;49.01;97707.66;5072570;28;20421;-79
2023/02/20 08:18:41;;;;;;;6.85;3.25;;;;;;;14.84;48.61;97697.25;5071902;28;20499;-79
2023/02/20 08:21:08;;;;;;;6.93;3.20;;;;;;;14.93;47.49;97683.03;5072786;28;20054;-79
2023/02/20 08:23:36;;;;;;;6.72;2.75;;;;;;;14.75;48.11;97680.78;5072269;28;20062;-79
2023/02/20 08:26:04;;;;;;;6.18;3.10;;;;;;;14.86;47.46;97691.84;5072015;28;20131;-79
2023/02/20 08:28:33;;;;;;;4.93;2.85;;;;;;;15.77;46.01;97681.78;5071551;28;20056;-79
2023/02/20 08:31:00;;;;;;;5.18;2.47;;;;;;;16.79;43.81;97681.34;5072305;28;20109;-79
2023/02/20 08:33:28;;;;;;;3.80;2.58;;;;;;;16.95;42.73;97682.84;5072141;28;20486;-79
2023/02/20 08:35:56;;;;;;;3.67;2.30;;;;;;;16.67;43.05;97682.88;5072441;28;20051;-79
2023/02/20 08:38:27;;;;;;;4.88;2.03;;;;;;;16.73;42.94;97682.09;5074220;28;20076;-79
2023/02/20 08:40:55;;;;;;;5.43;2.13;;;;;;;16.89;42.99;97671.25;5076445;28;20131;-79
2023/02/20 08:43:23;;;;;;;5.03;2.03;;;;;;;16.63;42.91;97663.19;5076387;28;20135;-79
2023/02/20 08:45:55;;;;;;;4.72;2.00;;;;;;;16.28;43.49;97663.16;5076015;28;20079;-79
2023/02/20 08:48:23;;;;;;;4.63;1.88;;;;;;;16.09;43.47;97654.09;5075721;28;20044;-78
2023/02/20 08:50:51;;;;;;;5.68;2.40;;;;;;;15.86;43.96;97649.88;5076314;28;20140;-79
2023/02/20 08:53:19;;;;;;;6.75;2.08;;;;;;;15.59;44.19;97666.38;5076432;28;20080;-79
2023/02/20 08:55:47;;;;;;;7.25;2.22;;;;;;;15.34;44.06;97663.31;5075660;28;20520;-79
2023/02/20 08:58:19;;;;;;;6.32;2.45;;;;;;;15.25;44.18;97666.03;5075346;28;20054;-79
2023/02/20 09:00:46;;;;;;;7.18;2.08;;;;;;;15.31;44.54;97663.69;5076087;28;20091;-79
2023/02/20 09:03:15;;;;;;;3.28;1.85;;;;;;;15.48;44.33;97654.56;5075546;28;20135;-79
2023/02/20 09:05:43;;;;;;;3.58;2.00;;;;;;;15.75;43.60;97650.41;5094391;22;20515;-79
2023/02/20 09:08:11;;;;;;;4.10;2.60;;;;;;;16.09;43.17;97637.50;5087850;28;20075;-79
2023/02/20 09:10:39;;;;;;;4.88;2.30;;;;;;;16.46;42.48;97634.53;5089397;28;20052;-80
2023/02/20 09:13:06;;;;;;;3.00;1.65;;;;;;;16.69;42.22;97642.16;5089146;28;20055;-80
2023/02/20 09:15:38;;;;;;;5.40;2.47;;;;;;;16.85;41.59;97637.59;5089858;28;20055;-83
2023/02/20 09:18:08;;;;;;;3.50;1.90;;;;;;;16.84;41.48;97636.78;5108826;28;20131;-79
2023/02/20 09:20:38;;;;;;;2.63;1.50;;;;;;;17.00;41.05;97640.09;5111536;28;20059;-82
2023/02/20 09:23:06;;;;;;;4.22;2.00;;;;;;;17.23;40.64;97642.38;5112221;28;20391;-81
2023/02/20 09:25:34;;;;;;;3.50;2.25;;;;;;;17.35;40.79;97640.81;5111366;28;20073;-84
2023/02/20 09:28:02;;;;;;;5.75;2.30;;;;;;;17.49;40.90;97636.34;5109720;28;20044;-80
2023/02/20 09:30:30;;;;;;;4.35;1.98;;;;;;;17.65;39.66;97629.91;5109684;28;20078;-80
2023/02/20 09:32:57;;;;;;;4.05;1.83;;;;;;;17.80;39.29;97630.53;5110033;28;20097;-79
2023/02/20 09:35:27;;;;;;;3.10;2.05;;;;;;;17.96;38.47;97626.69;5108991;28;20040;-80
2023/02/20 09:37:57;;;;;;;4.47;2.00;;;;;;;18.15;39.05;97630.34;5107228;28;20044;-82
2023/02/20 09:40:26;;;;;;;4.68;1.88;;;;;;;18.41;39.00;97631.31;5107549;28;20048;-81
2023/02/20 09:43:14;;;;;;;5.93;1.70;;;;;;;18.58;37.32;97635.13;5107412;28;20079;-80
2023/02/20 09:45:46;;;;;;;4.97;1.52;;;;;;;18.67;37.29;97633.09;5106312;28;20082;-80
2023/02/20 09:48:26;;;;;;;2.47;1.50;;;;;;;18.77;35.67;97625.53;5104958;28;20052;-81
2023/02/20 09:50:59;;;;;;;4.35;2.00;;;;;;;18.62;36.06;97623.13;5104421;28;20142;-79
2023/02/20 09:53:32;;;;;;;5.22;1.70;;;;;;;18.65;36.93;97619.25;5106193;28;20070;-79
2023/02/20 09:56:02;;;;;;;6.18;1.80;;;;;;;18.89;36.43;97623.06;5106312;28;20134;-80
2023/02/20 09:58:41;;;;;;;2.92;1.60;;;;;;;19.05;35.89;97606.75;5104766;28;20101;-79
2023/02/20 10:01:12;;;;;;;4.30;2.17;;;;;;;18.94;35.49;97607.41;5106255;28;20048;-80
2023/02/20 10:03:52;;;;;;;5.13;2.13;;;;;;;18.56;36.00;97602.00;5105651;28;20062;-80
2023/02/20 10:06:24;;;;;;;3.83;1.77;;;;;;;18.56;36.85;97604.66;5106820;28;20298;-83
2023/02/20 10:08:54;;;;;;;3.20;1.70;;;;;;;18.57;36.61;97601.81;5110360;28;20056;-83
2023/02/20 10:11:49;;;;;;;2.53;1.52;;;;;;;18.44;36.58;97602.66;5108299;28;20048;-81
2023/02/20 10:14:38;;;;;;;6.32;1.65;;;;;;;18.45;36.66;97599.00;5110104;28;20074;-82
2023/02/20 10:17:17;;;;;;;3.35;1.80;;;;;;;18.43;35.88;97601.06;5107988;28;20065;-81
2023/02/20 10:19:51;;;;;;;6.60;1.92;;;;;;;18.29;36.45;97583.59;5108629;28;20048;-84
2023/02/20 10:22:24;;;;;;;3.70;1.90;;;;;;;18.36;37.45;97594.94;5106446;28;20054;-84
2023/02/20 10:25:05;;;;;;;;;;;;;;;18.60;36.93;97588.19;5108550;28;20055;-84
2023/02/20 10:27:43;;;;;;;6.57;1.77;;;;;;;19.00;36.53;97582.78;5107190;28;19920;-82
2023/02/20 10:30:13;;;;;;;3.10;1.40;;;;;;;19.34;35.43;97589.47;5107315;28;20060;-81
2023/02/20 10:32:47;;;;;;;9.40;2.22;;;;;;;19.65;34.19;97585.19;5107773;28;20580;-80
2023/02/20 10:35:21;;;;;;;2.33;1.50;;;;;;;19.90;34.76;97589.72;5107608;28;20214;-81
2023/02/20 10:37:55;;;;;;;2.90;1.20;;;;;;;20.24;34.60;97593.66;5107607;28;20413;-82
2023/02/20 10:40:31;;;;;;;3.83;1.45;;;;;;;20.54;33.05;97596.41;5108055;28;20086;-84
2023/02/20 10:43:04;;;;;;;4.00;1.65;;;;;;;20.76;32.81;97593.34;5108200;28;20051;-84
2023/02/20 10:45:42;;;;;;;3.47;1.20;;;;;;;21.03;31.81;97588.50;5105012;28;20143;-80
2023/02/20 10:48:14;;;;;;;2.25;1.17;;;;;;;21.37;32.37;97583.56;5104809;28;20074;-80
2023/02/20 10:50:48;;;;;;;2.85;1.50;;;;;;;21.66;31.77;97581.13;5105896;28;20058;-80
2023/02/20 10:53:25;;;;;;;2.65;1.58;;;;;;;21.97;31.57;97572.00;5104549;28;20137;-81
2023/02/20 10:56:03;;;;;;;3.00;1.52;;;;;;;22.26;30.46;97574.81;5103366;28;20480;-81
2023/02/20 10:58:36;;;;;;;4.00;1.48;;;;;;;22.51;30.80;97571.91;5102382;28;20580;-81
2023/02/20 11:01:07;;;;;;;4.78;1.30;;;;;;;22.82;29.92;97576.75;5102625;28;20294;-82
2023/02/20 11:03:43;;;;;;;3.97;1.45;;;;;;;23.01;29.13;97571.31;5102618;28;20048;-82
2023/02/20 11:06:15;;;;;;;3.75;1.58;;;;;;;23.14;29.50;97560.38;5101392;28;20147;-80
2023/02/20 11:08:44;;;;;;;3.08;1.20;;;;;;;23.32;29.30;97561.22;5101563;28;20058;-80
2023/02/20 11:11:25;;;;;;;2.90;1.63;;;;;;;23.48;28.03;97548.97;5101727;28;20040;-80
2023/02/20 11:13:53;;;;;;;2.67;1.30;;;;;;;23.59;28.92;97550.72;5101591;28;20047;-83
2023/02/20 11:16:28;;;;;;;8.75;2.00;;;;;;;23.78;28.10;97544.16;5099838;28;20573;-83
2023/02/20 11:19:15;;;;;;;4.70;2.35;;;;;;;23.68;28.25;97545.81;5098278;28;20054;-80
2023/02/20 11:21:46;;;;;;;3.08;1.80;;;;;;;23.81;27.90;97537.50;5100471;28;20421;-80
2023/02/20 11:24:27;;;;;;;2.53;1.33;;;;;;;24.08;27.54;97534.19;5098829;28;20062;-83
2023/02/20 11:27:03;;;;;;;3.03;1.40;;;;;;;24.26;27.07;97540.03;5100407;28;20117;-83
2023/02/20 11:29:37;;;;;;;4.32;1.48;;;;;;;24.39;27.21;97543.38;5098970;28;20062;-81
2023/02/20 11:32:18;;;;;;;4.95;1.23;;;;;;;24.52;27.08;97535.03;5099748;28;20127;-82
2023/02/20 11:34:46;;;;;;;3.97;1.60;;;;;;;24.60;27.25;97521.28;5099723;28;20051;-79
2023/02/20 11:37:15;;;;;;;3.13;1.52;;;;;;;24.71;27.06;97530.22;5098659;28;20047;-80
2023/02/20 11:39:47;;;;;;;6.47;1.95;;;;;;;24.92;26.54;97515.19;5099175;28;20044;-81
2023/02/20 11:42:19;;;;;;;3.92;2.05;;;;;;;25.08;26.30;97514.31;5102891;28;20054;-84
2023/02/20 11:45:12;;;;;;;3.40;1.40;;;;;;;25.21;26.80;97509.63;5099598;28;20097;-81
2023/02/20 11:47:40;;;;;;;2.45;1.15;;;;;;;25.43;26.37;97510.38;5080815;28;20437;-80
2023/02/20 11:50:16;;;;;;;3.95;1.10;;;;;;;25.58;25.78;97506.19;5098599;28;20420;-80
2023/02/20 11:52:59;;;;;;;4.30;1.58;;;;;;;25.67;25.24;97491.28;5098995;28;20048;-80
2023/02/20 11:55:28;;;;;;;2.65;1.00;;;;;;;25.66;25.61;97485.13;5097587;28;20052;-81
2023/02/20 11:57:57;;;;;;;3.30;1.38;;;;;;;25.77;26.06;97483.34;5097690;28;20040;-80
2023/02/20 12:00:26;;;;;;;3.00;1.60;;;;;;;25.74;25.10;97483.88;5098275;28;20226;-83
2023/02/20 12:02:56;;;;;;;1.85;1.08;;;;;;;25.67;24.92;97477.91;5097814;28;20054;-80
2023/02/20 12:05:37;;;;;;;2.70;1.38;;;;;;;25.69;25.00;97475.78;5098181;28;20048;-80
2023/02/20 12:08:27;;;;;;;4.78;1.00;;;;;;;25.80;25.07;97472.16;5097869;28;20474;-81
2023/02/20 12:10:59;;;;;;;1.70;1.15;;;;;;;25.95;24.77;97467.97;5097651;28;20048;-81
2023/02/20 12:13:32;;;;;;;1.73;1.45;;;;;;;26.09;24.66;97456.53;5097355;28;20448;-81
2023/02/20 12:16:22;;;;;;;2.53;1.45;;;;;;;26.16;24.02;97453.63;5098427;28;20051;-81
2023/02/20 12:18:57;;;;;;;3.38;1.55;;;;;;;26.18;24.20;97453.38;5096022;28;20044;-81
2023/02/20 12:21:33;;;;;;;4.47;1.52;;;;;;;26.12;24.13;97441.84;5097621;28;20131;-80
2023/02/20 12:24:24;;;;;;;2.42;1.20;;;;;;;26.02;24.82;97447.13;5098293;28;20051;-81
2023/02/20 12:26:53;;;;;;;2.47;1.40;;;;;;;25.83;25.04;97444.09;5081977;28;20383;-81
2023/02/20 12:29:49;;;;;;;2.45;1.30;;;;;;;25.48;24.49;97440.94;5097110;28;20055;-80
2023/02/20 12:32:28;;;;;;;3.10;1.08;;;;;;;25.01;25.19;97427.47;5096098;28;20433;-80
2023/02/20 12:35:13;;;;;;;5.38;1.35;;;;;;;24.57;25.49;97441.75;5097382;28;20058;-81
2023/02/20 12:37:53;;;;;;;3.65;0.93;;;;;;;24.18;26.36;97428.50;5097104;28;20256;-79
2023/02/20 12:40:37;;;;;;;3.67;1.35;;;;;;;23.85;26.42;97410.75;5096668;28;20048;-80
2023/02/20 12:43:17;;;;;;;2.10;1.00;;;;;;;23.61;26.96;97410.16;5096542;28;20130;-80
2023/02/20 12:45:53;;;;;;;5.45;1.40;;;;;;;23.30;27.38;97407.03;5094955;28;20055;-80
2023/02/20 12:48:33;;;;;;;5.40;1.00;;;;;;;23.08;26.77;97401.66;5096177;28;20054;-79
2023/02/20 12:51:11;;;;;;;2.40;0.90;;;;;;;22.83;26.90;97396.72;5097004;28;20062;-80
2023/02/20 12:54:02;;;;;;;1.05;0.82;;;;;;;22.44;27.36;97393.91;5097075;28;20048;-80